メインページ
METAR-TAF:

METAR-TAF

空港 :

リマ, ペルー

ホルヘ・チャベス国際空港

緯度: 12-00S, 経度: 077-07W, 海抜: 12m

現時点の気象観測

当レポートは19分前の02:00(UTC)に作成
の風 7kt
気温 21°C
湿度 83%
気圧 1014 hPa
視程10km以上
高度2500ftの千切れ雲あり
高度13000ftの雲は散在している

METAR: SPJC 010200Z 17007KT 9999 BKN025 SCT130 21/18 Q1014 NOSIG RMK PP000

時間: 21:19 (02:19 UTC)

予報

当レポートは3時間19分前の23:00(UTC)に作成
予報は01日の 00時(UTC)から 01日の 24時(UTC)まで有効
の風 8kt
視程10km以上
高度2200ftの曇り
01日の 0300時(UTC)から
の風 5kt
視程: 8000m
高度1500ftの曇り
01日の 05時(UTC)から 01日の 09時(UTC)まで一時的に
視程: 4000m
高度1000ftの曇り
靄, 霧雨
01日の 14時(UTC)から 01日の 16時(UTC)まで徐々に
西/南西の風 6kt
視程10km以上
高度2500ftの雲は散在している
01日の 20時(UTC)から 01日の 22時(UTC)まで徐々に
の風 10kt
高度3000ftの雲は散在している

TAF: SPJC 302300Z 0100/0124 17008KT 9999 OVC022 TX23/0119Z TN19/0111Z FM010300 19005KT 8000 OVC015 TEMPO 0105/0109 4000 BR DZ OVC010 BECMG 0114/0116 24006KT 9999 SCT025 BECMG 0120/0122 17010KT SCT030

4,000以上の空港の気象観測と天気予報(METAR報とTAF報)

利用可能な観測所は地図上に黄色い丸と赤い丸で示す。

丸の上にカーソルを重ねると観測所名を参照できる。

次にクリックすると気象観測と天気予報を参照できる。

マップの切り替え:黒色「×」印の緑ボタンをクリックして拡大、「-」印の緑ボタンをクリックして縮小、緑色の三角印をクリックして隣りの地図に切り替え


METAR-TAF: